Cold Bay, AK (99571)

12:45 PM AKDT on July 24, 2016 (GMT -0800)
Cold Bay | | Change Station

Elev 102 ft 55.22 °N, 162.73 °W | Updated 7 minutes ago

Light Rain
Light Rain Mist
51 °F
Feels Like 51 °F
N
21
Wind Variable Wind from West

Today
High -- | Low -- °F
--% Chance of Precip.
Yesterday
High -- | Low -- °F
Precip. -- in
Pressure 29.84 in
Visibility 2.5 miles
Clouds Overcast 200 ft
Dew Point 51 °F
Humidity 100%
Rainfall 0.03 in
Snow Depth Not available.
6:46 AM 11:07 PM
Waning Gibbous, 73% visible
SPECI PACD 242038Z 26018KT 2 1/2SM -RA BR OVC002 11/11 A2984 RMK AO2 RAE05B10 P0000 T01060106 $
Pressure 29.84 in
Visibility 2.5 miles
Clouds Overcast 200 ft
Dew Point 51 °F
Humidity 100%
Rainfall 0.03 in
Snow Depth Not available.
6:46 AM 11:07 PM
Waning Gibbous, 73% visible
SPECI PACD 242038Z 26018KT 2 1/2SM -RA BR OVC002 11/11 A2984 RMK AO2 RAE05B10 P0000 T01060106 $

10-Day Weather Forecast

Almanac

Astronomy

Jul. 24, 2016 Rise Set
Actual Time
Civil Twilight
Nautical Twilight
Astronomical Twilight
Moon
Length of Visible Light
Length of Day
Tomorrow will be .
, % of the Moon is Illuminated

Today's Extremes

State Highs State Lows

Community

WunderPhotos

Upload Photos

1,927,189 photos uploaded!

WunderBlog® & News

Nearby

Air Quality

  Air Quality AQ Index Pollutant
Not available.

Snow Depth

Station Depth Elevation

Earthquake Activity

City Distance Mag. Time & Date
Minimum magnitude displayed is 2.5.

Coastal Water Temperatures

Place Temperature

Stations

Nearby Weather Stations

Station Location Temp. Windchill Dew Point Humidity Wind Precip. Elev Updated Type
                   

Watches & Warnings

There are currently no watches in effect.